Time;durP1;ratioP1;P1;durP2;ratioP2;P2;SDS_P1;SDS_P2;PMS_P1;PMS_P2;Temp;Humidity;BMP_temperature;BMP_pressure;BME280_temperature;BME280_humidity;BME280_pressure;Samples;Min_cycle;Max_cycle;Signal;HPM_P1;HPM_P2
2023/05/05 00:02:03;;;;;;;6.65;2.53;;;;;;;;;;10371106;28;20029;-60
2023/05/05 00:07:04;;;;;;;3.08;2.10;;;;;;;;;;10371940;28;20022;-60
2023/05/05 00:12:05;;;;;;;3.45;2.45;;;;;;;;;;10406461;28;20587;-60
2023/05/05 00:17:05;;;;;;;5.85;3.13;;;;;;;;;;10371076;28;20030;-59
2023/05/05 00:22:06;;;;;;;3.03;2.17;;;;;;;;;;10393900;28;20133;-59
2023/05/05 00:27:07;;;;;;;6.00;2.47;;;;;;;;;;10385368;28;20025;-59
2023/05/05 00:32:07;;;;;;;4.82;2.03;;;;;;;;;;10384611;28;20025;-59
2023/05/05 00:37:08;;;;;;;4.78;2.28;;;;;;;;;;10402153;28;20032;-59
2023/05/05 00:42:09;;;;;;;2.25;1.98;;;;;;;;;;10378964;28;20037;-61
2023/05/05 00:47:11;;;;;;;4.40;2.10;;;;;;;;;;10378404;28;20025;-60
2023/05/05 00:52:12;;;;;;;3.65;2.05;;;;;;;;;;10367822;28;20049;-59
2023/05/05 00:57:12;;;;;;;3.63;2.10;;;;;;;;;;10363617;28;20104;-59
2023/05/05 01:02:13;;;;;;;4.25;2.30;;;;;;;;;;10367742;28;20030;-58
2023/05/05 01:07:34;;;;;;;3.95;2.35;;;;;;;;;;10369589;28;20029;-59
2023/05/05 01:13:08;;;;;;;4.20;2.00;;;;;;;;;;10379613;28;20036;-59
2023/05/05 01:18:17;;;;;;;4.00;2.55;;;;;;;;;;10352552;28;20022;-58
2023/05/05 01:23:44;;;;;;;4.32;2.60;;;;;;;;;;10350149;28;20539;-59
2023/05/05 01:29:54;;;;;;;3.97;2.20;;;;;;;;;;10353208;28;20050;-59
2023/05/05 01:35:34;;;;;;;2.75;2.05;;;;;;;;;;10343467;28;20057;-59
2023/05/05 01:40:42;;;;;;;3.38;2.08;;;;;;;;;;10338189;28;20132;-58
2023/05/05 01:45:45;;;;;;;4.03;1.93;;;;;;;;;;10345349;28;20412;-58
2023/05/05 01:50:47;;;;;;;3.17;1.90;;;;;;;;;;10364832;28;20826;-59
2023/05/05 01:55:49;;;;;;;3.17;2.15;;;;;;;;;;10365840;28;20026;-59
2023/05/05 02:00:52;;;;;;;3.53;2.00;;;;;;;;;;10346422;28;20053;-60
2023/05/05 02:05:54;;;;;;;3.15;1.85;;;;;;;;;;10363044;28;20038;-59
2023/05/05 02:10:55;;;;;;;2.55;2.20;;;;;;;;;;10346357;28;20030;-59
2023/05/05 02:15:56;;;;;;;3.15;2.20;;;;;;;;;;10365260;28;20439;-59
2023/05/05 02:20:56;;;;;;;2.50;1.70;;;;;;;;;;10381864;28;20461;-59
2023/05/05 02:26:06;;;;;;;4.60;1.90;;;;;;;;;;10383588;28;20030;-59
2023/05/05 02:31:09;;;;;;;6.35;2.05;;;;;;;;;;10369479;28;20359;-58
2023/05/05 02:36:19;;;;;;;3.28;2.28;;;;;;;;;;10362397;28;20053;-58
2023/05/05 02:41:21;;;;;;;5.18;2.47;;;;;;;;;;10358931;28;20034;-57
2023/05/05 02:46:22;;;;;;;3.05;2.20;;;;;;;;;;10372151;28;20501;-58
2023/05/05 02:51:22;;;;;;;2.83;1.98;;;;;;;;;;10376090;28;20022;-59
2023/05/05 02:56:50;;;;;;;3.90;2.10;;;;;;;;;;10360512;28;20504;-59
2023/05/05 03:02:04;;;;;;;2.23;1.97;;;;;;;;;;10373323;28;20025;-58
2023/05/05 03:07:24;;;;;;;4.03;2.50;;;;;;;;;;10371800;28;20030;-59
2023/05/05 03:12:31;;;;;;;2.40;1.80;;;;;;;;;;10358169;28;20061;-58
2023/05/05 03:17:33;;;;;;;4.55;1.98;;;;;;;;;;10366954;28;20021;-58
2023/05/05 03:22:36;;;;;;;2.45;1.90;;;;;;;;;;10387172;28;20496;-58
2023/05/05 03:27:36;;;;;;;2.13;1.90;;;;;;;;;;10371233;28;20029;-58
2023/05/05 03:32:37;;;;;;;4.07;2.00;;;;;;;;;;10369625;28;20026;-58
2023/05/05 03:37:38;;;;;;;1.73;1.63;;;;;;;;;;10382452;28;20037;-58
2023/05/05 03:42:38;;;;;;;2.53;1.80;;;;;;;;;;10369555;28;20053;-58
2023/05/05 03:47:39;;;;;;;4.53;2.13;;;;;;;;;;10369196;28;20069;-58
2023/05/05 03:52:40;;;;;;;2.60;1.88;;;;;;;;;;10368539;28;20030;-59
2023/05/05 03:57:40;;;;;;;3.08;1.85;;;;;;;;;;10369492;28;20370;-58
2023/05/05 04:02:42;;;;;;;4.05;1.92;;;;;;;;;;10367824;28;20099;-58
2023/05/05 04:07:42;;;;;;;3.00;2.13;;;;;;;;;;10368540;28;20037;-58
2023/05/05 04:12:43;;;;;;;3.38;1.90;;;;;;;;;;10373030;28;20021;-58
2023/05/05 04:17:44;;;;;;;2.60;1.80;;;;;;;;;;10377980;28;20024;-58
2023/05/05 04:22:45;;;;;;;2.17;2.03;;;;;;;;;;10380173;28;20034;-57
2023/05/05 04:27:45;;;;;;;3.28;2.00;;;;;;;;;;10389353;28;20032;-60
2023/05/05 04:32:46;;;;;;;1.60;1.50;;;;;;;;;;10384523;28;20018;-60
2023/05/05 04:37:47;;;;;;;1.88;1.55;;;;;;;;;;10372801;28;20021;-61
2023/05/05 04:42:48;;;;;;;3.15;2.20;;;;;;;;;;10391949;28;20049;-58
2023/05/05 04:47:48;;;;;;;4.43;1.63;;;;;;;;;;10378472;28;20083;-57
2023/05/05 04:52:49;;;;;;;1.65;1.50;;;;;;;;;;10375758;28;20022;-58
2023/05/05 04:57:50;;;;;;;1.77;1.67;;;;;;;;;;10385184;28;20053;-59
2023/05/05 05:02:51;;;;;;;2.47;1.80;;;;;;;;;;10366607;28;20049;-59
2023/05/05 05:07:52;;;;;;;1.95;1.80;;;;;;;;;;10380253;28;20033;-56
2023/05/05 05:12:53;;;;;;;2.90;2.00;;;;;;;;;;10376732;28;20038;-57
2023/05/05 05:17:53;;;;;;;2.15;1.90;;;;;;;;;;10375605;28;20038;-55
2023/05/05 05:22:54;;;;;;;2.50;1.80;;;;;;;;;;10376963;28;20496;-60
2023/05/05 05:27:54;;;;;;;2.75;1.95;;;;;;;;;;10377884;28;20026;-56
2023/05/05 05:32:55;;;;;;;2.55;1.80;;;;;;;;;;10365226;28;20030;-56
2023/05/05 05:37:56;;;;;;;9.93;2.38;;;;;;;;;;10345991;28;20186;-56
2023/05/05 05:42:56;;;;;;;3.88;2.20;;;;;;;;;;10354913;28;20409;-57
2023/05/05 05:47:57;;;;;;;2.95;2.33;;;;;;;;;;10365143;28;20041;-57
2023/05/05 05:52:58;;;;;;;6.03;2.50;;;;;;;;;;10352143;28;20032;-57
2023/05/05 05:57:59;;;;;;;2.53;2.08;;;;;;;;;;10361810;28;20030;-56
2023/05/05 06:02:59;;;;;;;6.88;2.53;;;;;;;;;;10360718;28;20053;-56
2023/05/05 06:08:00;;;;;;;4.68;2.65;;;;;;;;;;10368090;28;20069;-57
2023/05/05 06:13:01;;;;;;;4.78;2.67;;;;;;;;;;10366199;28;20229;-56
2023/05/05 06:18:01;;;;;;;6.90;3.38;;;;;;;;;;10364348;28;20021;-57
2023/05/05 06:23:02;;;;;;;7.03;2.97;;;;;;;;;;10376749;28;20377;-56
2023/05/05 06:28:04;;;;;;;8.40;3.63;;;;;;;;;;10398103;28;20021;-57
2023/05/05 06:33:04;;;;;;;8.32;3.42;;;;;;;;;;10367572;28;20068;-56
2023/05/05 06:38:05;;;;;;;5.68;3.30;;;;;;;;;;10381084;28;20060;-56
2023/05/05 06:43:06;;;;;;;6.13;2.67;;;;;;;;;;10382786;28;20050;-56
2023/05/05 06:48:07;;;;;;;4.68;2.85;;;;;;;;;;10384082;28;20397;-60
2023/05/05 06:53:07;;;;;;;8.52;3.00;;;;;;;;;;10381050;28;20030;-59
2023/05/05 06:58:08;;;;;;;3.60;2.70;;;;;;;;;;10383397;28;20022;-59
2023/05/05 07:03:08;;;;;;;8.70;3.03;;;;;;;;;;10379064;28;20037;-57
2023/05/05 07:08:10;;;;;;;7.85;2.95;;;;;;;;;;10374920;28;20022;-57
2023/05/05 07:13:10;;;;;;;6.75;2.92;;;;;;;;;;10396012;28;20030;-57
2023/05/05 07:18:15;;;;;;;5.68;2.83;;;;;;;;;;10374180;28;20088;-57
2023/05/05 07:23:16;;;;;;;5.57;3.10;;;;;;;;;;10390113;28;20388;-57
2023/05/05 07:28:17;;;;;;;5.97;2.67;;;;;;;;;;10387438;28;20238;-57
2023/05/05 07:33:17;;;;;;;7.03;3.08;;;;;;;;;;10354249;28;20019;-57
2023/05/05 07:38:18;;;;;;;6.10;2.80;;;;;;;;;;10378348;28;20021;-59
2023/05/05 07:43:18;;;;;;;5.22;2.80;;;;;;;;;;10377871;28;20095;-58
2023/05/05 07:48:19;;;;;;;4.95;2.22;;;;;;;;;;10373834;28;20029;-57
2023/05/05 07:53:20;;;;;;;5.20;2.58;;;;;;;;;;10384985;28;20103;-56
2023/05/05 07:58:20;;;;;;;3.20;2.85;;;;;;;;;;10367843;28;20032;-58
2023/05/05 08:03:23;;;;;;;4.40;3.38;;;;;;;;;;10369118;28;20048;-58
2023/05/05 08:08:23;;;;;;;5.88;2.70;;;;;;;;;;10379065;28;20034;-56
2023/05/05 08:13:24;;;;;;;2.70;2.50;;;;;;;;;;10378082;28;20041;-56
2023/05/05 08:18:25;;;;;;;9.15;3.00;;;;;;;;;;10396066;28;20025;-57
2023/05/05 08:23:25;;;;;;;4.65;2.50;;;;;;;;;;10370552;28;20206;-58
2023/05/05 08:28:26;;;;;;;4.07;2.60;;;;;;;;;;10377066;28;20173;-57
2023/05/05 08:33:27;;;;;;;7.43;2.97;;;;;;;;;;10387611;28;20021;-58
2023/05/05 08:38:27;;;;;;;3.13;2.72;;;;;;;;;;10377231;28;20022;-57
2023/05/05 08:43:28;;;;;;;5.20;2.78;;;;;;;;;;10387559;28;20128;-57
2023/05/05 08:48:32;;;;;;;2.90;2.22;;;;;;;;;;10391767;28;20270;-57
2023/05/05 08:54:01;;;;;;;3.88;2.70;;;;;;;;;;10377416;28;20017;-55
2023/05/05 08:59:01;;;;;;;8.40;3.05;;;;;;;;;;10370509;28;20036;-59
2023/05/05 09:04:08;;;;;;;4.60;2.50;;;;;;;;;;10367240;28;20053;-57
2023/05/05 09:09:09;;;;;;;7.68;2.80;;;;;;;;;;10368071;28;20049;-57
2023/05/05 09:14:10;;;;;;;9.43;3.35;;;;;;;;;;10377583;28;20025;-57
2023/05/05 09:19:10;;;;;;;3.83;3.05;;;;;;;;;;10377574;28;20029;-59
2023/05/05 09:24:14;;;;;;;4.05;3.15;;;;;;;;;;10368679;28;20083;-57
2023/05/05 09:29:19;;;;;;;7.65;2.63;;;;;;;;;;10384976;28;20026;-57
2023/05/05 09:34:20;;;;;;;8.68;3.85;;;;;;;;;;10388574;28;20026;-59
2023/05/05 09:39:20;;;;;;;8.10;2.88;;;;;;;;;;10386622;28;20033;-58
2023/05/05 09:44:35;;;;;;;5.25;3.10;;;;;;;;;;10375801;28;20041;-58
2023/05/05 09:49:37;;;;;;;4.03;2.70;;;;;;;;;;10358127;28;20056;-57
2023/05/05 09:54:37;;;;;;;6.40;3.47;;;;;;;;;;10379165;28;20036;-57
2023/05/05 09:59:38;;;;;;;5.95;3.00;;;;;;;;;;10363623;28;20026;-57
2023/05/05 10:04:39;;;;;;;6.57;3.22;;;;;;;;;;10343991;28;20462;-58
2023/05/05 10:09:39;;;;;;;8.65;3.20;;;;;;;;;;10359411;28;20083;-57
2023/05/05 10:14:41;;;;;;;6.88;3.03;;;;;;;;;;10359588;28;20033;-59
2023/05/05 10:19:42;;;;;;;7.07;2.92;;;;;;;;;;10352257;28;20377;-59
2023/05/05 10:25:01;;;;;;;5.20;3.38;;;;;;;;;;10333415;28;20113;-57
2023/05/05 10:30:06;;;;;;;8.82;3.08;;;;;;;;;;10373415;28;20469;-58
2023/05/05 10:35:08;;;;;;;10.52;3.28;;;;;;;;;;10344441;28;20392;-57
2023/05/05 10:40:10;;;;;;;4.85;3.28;;;;;;;;;;10361629;28;20395;-56
2023/05/05 10:45:11;;;;;;;4.28;3.13;;;;;;;;;;10346953;28;20048;-57
2023/05/05 10:50:17;;;;;;;4.70;3.10;;;;;;;;;;10363605;28;20022;-57
2023/05/05 10:55:29;;;;;;;3.90;3.10;;;;;;;;;;10364634;28;20429;-56
2023/05/05 11:00:48;;;;;;;4.55;3.20;;;;;;;;;;10345560;28;20037;-59
2023/05/05 11:06:06;;;;;;;3.85;2.85;;;;;;;;;;10350118;28;20531;-57
2023/05/05 11:11:11;;;;;;;5.35;2.70;;;;;;;;;;10361560;28;20084;-58
2023/05/05 11:16:46;;;;;;;6.38;3.00;;;;;;;;;;10363450;28;20200;-59
2023/05/05 11:22:02;;;;;;;5.00;3.08;;;;;;;;;;10362342;28;20064;-59
2023/05/05 11:27:03;;;;;;;4.13;2.95;;;;;;;;;;10384176;28;20049;-60
2023/05/05 11:32:12;;;;;;;5.10;3.53;;;;;;;;;;10376351;28;20045;-59
2023/05/05 11:37:15;;;;;;;3.47;2.80;;;;;;;;;;10369529;28;20469;-59
2023/05/05 11:42:27;;;;;;;12.68;3.83;;;;;;;;;;10362356;28;20141;-60
2023/05/05 11:47:29;;;;;;;6.35;4.30;;;;;;;;;;10369113;28;20514;-59
2023/05/05 11:52:30;;;;;;;8.93;4.85;;;;;;;;;;10371272;28;20087;-60
2023/05/05 11:57:30;;;;;;;6.22;4.90;;;;;;;;;;10365975;28;20034;-59
2023/05/05 12:02:31;;;;;;;6.47;5.85;;;;;;;;;;10374693;28;20029;-59
2023/05/05 12:07:32;;;;;;;6.80;6.10;;;;;;;;;;10376458;28;20036;-57
2023/05/05 12:12:34;;;;;;;7.78;6.40;;;;;;;;;;10364045;28;20156;-59
2023/05/05 12:17:44;;;;;;;6.30;5.68;;;;;;;;;;10349165;28;20029;-59
2023/05/05 12:22:45;;;;;;;6.82;6.07;;;;;;;;;;10364200;28;20509;-57
2023/05/05 12:27:53;;;;;;;8.48;6.22;;;;;;;;;;10353897;28;20021;-58
2023/05/05 12:33:04;;;;;;;;;;;;;;;;;;10389464;28;20066;-59
2023/05/05 12:38:05;;;;;;;7.18;6.47;;;;;;;;;;10374178;28;19945;-59
2023/05/05 12:43:06;;;;;;;8.32;6.97;;;;;;;;;;10386308;28;20046;-58
2023/05/05 12:48:37;;;;;;;9.85;6.97;;;;;;;;;;10365844;28;20049;-58
2023/05/05 12:53:37;;;;;;;16.10;7.72;;;;;;;;;;10356288;28;20489;-57
2023/05/05 12:58:47;;;;;;;8.73;7.60;;;;;;;;;;10365495;28;20017;-56
2023/05/05 13:04:22;;;;;;;13.85;6.30;;;;;;;;;;10366909;28;20039;-57
2023/05/05 13:09:29;;;;;;;7.63;6.05;;;;;;;;;;10367665;28;20026;-56
2023/05/05 13:14:33;;;;;;;8.02;6.80;;;;;;;;;;10365201;28;20096;-56
2023/05/05 13:19:40;;;;;;;7.13;6.45;;;;;;;;;;10360616;28;20036;-57
2023/05/05 13:24:41;;;;;;;9.75;5.80;;;;;;;;;;10370625;28;20029;-57
2023/05/05 13:29:42;;;;;;;8.05;5.82;;;;;;;;;;10363820;28;20033;-59
2023/05/05 13:34:43;;;;;;;9.23;5.90;;;;;;;;;;10362150;28;20030;-56
2023/05/05 13:39:43;;;;;;;9.63;6.57;;;;;;;;;;10373089;28;20041;-58
2023/05/05 13:44:44;;;;;;;9.00;6.93;;;;;;;;;;10368900;28;20451;-59
2023/05/05 13:49:45;;;;;;;8.10;6.78;;;;;;;;;;10375781;28;20088;-58
2023/05/05 13:54:45;;;;;;;8.70;7.05;;;;;;;;;;10368865;28;20040;-57
2023/05/05 13:59:46;;;;;;;13.07;7.25;;;;;;;;;;10369557;28;20465;-59
2023/05/05 14:04:46;;;;;;;17.45;7.45;;;;;;;;;;10369495;28;20022;-57
2023/05/05 14:09:47;;;;;;;33.15;8.95;;;;;;;;;;10362634;28;20136;-57
2023/05/05 14:14:48;;;;;;;23.23;7.55;;;;;;;;;;10367973;28;20113;-58
2023/05/05 14:19:49;;;;;;;27.40;7.47;;;;;;;;;;10376487;28;20047;-59
2023/05/05 14:24:49;;;;;;;27.83;8.07;;;;;;;;;;10357229;28;20129;-58
2023/05/05 14:29:50;;;;;;;34.97;7.78;;;;;;;;;;10374892;28;20478;-57
2023/05/05 14:34:50;;;;;;;22.02;7.40;;;;;;;;;;10360876;28;20026;-57
2023/05/05 14:39:51;;;;;;;27.83;8.50;;;;;;;;;;10358688;28;20033;-59
2023/05/05 14:44:52;;;;;;;25.00;7.78;;;;;;;;;;10375895;28;20037;-57
2023/05/05 14:49:52;;;;;;;15.20;7.13;;;;;;;;;;10378639;28;20502;-57
2023/05/05 14:54:53;;;;;;;18.70;7.25;;;;;;;;;;10377004;28;20029;-57
2023/05/05 14:59:53;;;;;;;16.17;6.75;;;;;;;;;;10383508;28;20034;-58
2023/05/05 15:04:54;;;;;;;17.85;6.80;;;;;;;;;;10364989;28;20542;-57
2023/05/05 15:09:57;;;;;;;14.20;6.28;;;;;;;;;;10379751;28;20473;-59
2023/05/05 15:14:58;;;;;;;9.68;6.18;;;;;;;;;;10369129;28;20033;-59
2023/05/05 15:19:59;;;;;;;28.17;6.88;;;;;;;;;;10372472;28;20033;-57
2023/05/05 15:25:00;;;;;;;11.68;6.57;;;;;;;;;;10367056;28;20040;-57
2023/05/05 15:30:00;;;;;;;7.85;6.30;;;;;;;;;;10362735;28;20504;-57
2023/05/05 15:35:01;;;;;;;16.52;5.60;;;;;;;;;;10370119;28;20025;-57
2023/05/05 15:40:02;;;;;;;12.93;6.57;;;;;;;;;;10368177;28;20045;-57
2023/05/05 15:45:05;;;;;;;16.35;5.93;;;;;;;;;;10371368;28;20497;-57
2023/05/05 15:50:06;;;;;;;13.23;5.45;;;;;;;;;;10364477;28;20375;-57
2023/05/05 15:55:08;;;;;;;8.00;5.47;;;;;;;;;;10366385;28;20033;-60
2023/05/05 16:00:09;;;;;;;9.50;5.47;;;;;;;;;;10366599;28;20038;-60
2023/05/05 16:05:11;;;;;;;6.38;4.93;;;;;;;;;;10364181;28;20053;-61
2023/05/05 16:10:12;;;;;;;10.98;5.18;;;;;;;;;;10371721;28;20053;-57
2023/05/05 16:15:13;;;;;;;9.65;5.10;;;;;;;;;;10379220;28;20037;-58
2023/05/05 16:20:13;;;;;;;8.85;5.05;;;;;;;;;;10358874;28;20490;-61
2023/05/05 16:25:17;;;;;;;10.38;5.13;;;;;;;;;;10347300;28;20354;-58
2023/05/05 16:30:17;;;;;;;10.18;5.35;;;;;;;;;;10359334;28;20399;-58
2023/05/05 16:35:18;;;;;;;7.05;4.60;;;;;;;;;;10381036;28;20032;-57
2023/05/05 16:40:18;;;;;;;7.97;5.18;;;;;;;;;;10385640;28;20021;-60
2023/05/05 16:45:19;;;;;;;9.85;4.95;;;;;;;;;;10355924;28;20053;-58
2023/05/05 16:50:21;;;;;;;6.43;4.93;;;;;;;;;;10352609;28;20113;-57
2023/05/05 16:55:22;;;;;;;12.45;4.90;;;;;;;;;;10358072;28;20462;-57
2023/05/05 17:00:22;;;;;;;5.85;4.60;;;;;;;;;;10376988;28;20034;-57
2023/05/05 17:05:23;;;;;;;8.57;4.38;;;;;;;;;;10367608;28;20037;-57
2023/05/05 17:10:23;;;;;;;6.35;4.25;;;;;;;;;;10353937;28;20102;-59
2023/05/05 17:15:24;;;;;;;6.10;4.35;;;;;;;;;;10371505;28;20026;-57
2023/05/05 17:20:25;;;;;;;7.38;4.47;;;;;;;;;;10365074;28;20469;-58
2023/05/05 17:25:25;;;;;;;5.18;4.15;;;;;;;;;;10364867;28;20032;-57
2023/05/05 17:30:26;;;;;;;7.15;4.43;;;;;;;;;;10382521;28;20022;-56
2023/05/05 17:35:27;;;;;;;6.00;4.47;;;;;;;;;;10387842;28;20376;-57
2023/05/05 17:40:27;;;;;;;6.72;4.32;;;;;;;;;;10374682;28;20040;-59
2023/05/05 17:45:28;;;;;;;6.25;4.65;;;;;;;;;;10363752;28;20034;-57
2023/05/05 17:50:28;;;;;;;4.10;3.65;;;;;;;;;;10362318;28;20110;-58
2023/05/05 17:55:29;;;;;;;8.93;4.28;;;;;;;;;;10352359;28;20278;-58
2023/05/05 18:00:30;;;;;;;7.35;4.47;;;;;;;;;;10364416;28;20064;-56
2023/05/05 18:05:30;;;;;;;5.25;3.85;;;;;;;;;;10358739;28;20097;-56
2023/05/05 18:10:31;;;;;;;4.55;3.80;;;;;;;;;;10363855;28;20060;-54
2023/05/05 18:15:31;;;;;;;4.72;3.97;;;;;;;;;;10369174;28;20025;-57
2023/05/05 18:20:32;;;;;;;8.38;4.72;;;;;;;;;;10384883;28;20021;-57
2023/05/05 18:25:33;;;;;;;9.48;5.00;;;;;;;;;;10395168;28;20033;-56
2023/05/05 18:30:34;;;;;;;7.32;4.90;;;;;;;;;;10393567;28;20025;-58
2023/05/05 18:35:35;;;;;;;6.95;4.65;;;;;;;;;;10383319;28;20069;-56
2023/05/05 18:40:35;;;;;;;7.18;4.55;;;;;;;;;;10398328;28;20040;-60
2023/05/05 18:45:36;;;;;;;13.10;5.47;;;;;;;;;;10381700;28;20120;-57
2023/05/05 18:50:36;;;;;;;11.85;5.57;;;;;;;;;;10386228;28;20032;-60
2023/05/05 18:55:37;;;;;;;9.88;5.80;;;;;;;;;;10396737;28;20073;-57
2023/05/05 19:00:38;;;;;;;9.38;5.10;;;;;;;;;;10367267;28;20035;-57
2023/05/05 19:05:39;;;;;;;12.93;4.60;;;;;;;;;;10380233;28;20021;-59
2023/05/05 19:10:40;;;;;;;6.97;4.60;;;;;;;;;;10365941;28;20037;-57
2023/05/05 19:15:41;;;;;;;11.93;4.93;;;;;;;;;;10368996;28;20084;-57
2023/05/05 19:20:42;;;;;;;6.95;4.22;;;;;;;;;;10365532;28;20022;-57
2023/05/05 19:25:43;;;;;;;8.73;4.68;;;;;;;;;;10370928;28;20026;-58
2023/05/05 19:30:47;;;;;;;9.05;4.70;;;;;;;;;;10375387;28;20461;-56
2023/05/05 19:35:47;;;;;;;9.93;4.32;;;;;;;;;;10375593;28;20030;-57
2023/05/05 19:40:49;;;;;;;7.72;4.60;;;;;;;;;;10374355;28;20026;-56
2023/05/05 19:45:49;;;;;;;6.32;3.95;;;;;;;;;;10330092;23;20078;-65
2023/05/05 19:50:50;;;;;;;8.70;4.35;;;;;;;;;;10312611;28;20141;-66
2023/05/05 19:55:51;;;;;;;6.63;4.55;;;;;;;;;;10314334;28;20026;-64
2023/05/05 20:00:51;;;;;;;9.77;4.10;;;;;;;;;;10321445;28;20038;-67
2023/05/05 20:05:52;;;;;;;10.20;4.30;;;;;;;;;;10312211;28;20170;-66
2023/05/05 20:10:53;;;;;;;6.95;4.10;;;;;;;;;;10299369;28;20089;-64
2023/05/05 20:15:53;;;;;;;11.15;4.18;;;;;;;;;;10308700;28;20214;-66
2023/05/05 20:20:54;;;;;;;9.95;4.30;;;;;;;;;;10298863;28;20027;-64
2023/05/05 20:25:55;;;;;;;5.22;3.88;;;;;;;;;;10317132;28;20339;-63
2023/05/05 20:30:56;;;;;;;10.80;3.95;;;;;;;;;;10301071;28;20030;-63
2023/05/05 20:35:56;;;;;;;9.93;4.43;;;;;;;;;;10317511;28;20034;-66
2023/05/05 20:40:57;;;;;;;7.00;4.35;;;;;;;;;;10313040;28;20046;-64
2023/05/05 20:45:58;;;;;;;15.02;4.10;;;;;;;;;;10300453;28;20546;-60
2023/05/05 20:51:03;;;;;;;8.55;4.50;;;;;;;;;;10303251;28;20550;-65
2023/05/05 20:56:04;;;;;;;9.02;3.83;;;;;;;;;;10293396;28;20038;-63
2023/05/05 21:01:05;;;;;;;5.75;4.07;;;;;;;;;;10303603;28;20474;-63
2023/05/05 21:06:05;;;;;;;7.80;3.70;;;;;;;;;;10311128;28;20030;-60
2023/05/05 21:11:09;;;;;;;9.52;4.45;;;;;;;;;;10305217;28;20034;-60
2023/05/05 21:16:10;;;;;;;10.70;4.75;;;;;;;;;;10316028;28;20027;-62
2023/05/05 21:21:11;;;;;;;6.10;3.70;;;;;;;;;;10330208;28;20374;-56
2023/05/05 21:26:12;;;;;;;5.13;3.35;;;;;;;;;;10320965;28;20035;-56
2023/05/05 21:31:12;;;;;;;7.45;4.30;;;;;;;;;;10293235;28;20030;-57
2023/05/05 21:36:17;;;;;;;6.03;3.78;;;;;;;;;;10331357;28;20390;-58
2023/05/05 21:41:18;;;;;;;5.25;3.67;;;;;;;;;;10312436;28;20065;-58
2023/05/05 21:46:19;;;;;;;5.97;3.65;;;;;;;;;;10318190;28;20113;-62
2023/05/05 21:51:21;;;;;;;7.32;4.00;;;;;;;;;;10296669;28;20030;-57
2023/05/05 21:56:22;;;;;;;7.82;3.65;;;;;;;;;;10306566;28;20580;-56
2023/05/05 22:01:22;;;;;;;5.55;3.50;;;;;;;;;;10304289;28;20034;-57
2023/05/05 22:06:23;;;;;;;6.13;3.70;;;;;;;;;;10306113;28;20030;-57
2023/05/05 22:11:23;;;;;;;5.85;3.83;;;;;;;;;;10305876;28;20466;-57
2023/05/05 22:16:24;;;;;;;5.35;3.33;;;;;;;;;;10297797;28;20022;-57
2023/05/05 22:21:26;;;;;;;9.60;3.58;;;;;;;;;;10294867;28;20042;-59
2023/05/05 22:26:26;;;;;;;6.35;3.47;;;;;;;;;;10303807;28;20023;-57
2023/05/05 22:31:28;;;;;;;10.88;3.67;;;;;;;;;;10331586;28;20037;-59
2023/05/05 22:36:28;;;;;;;7.82;3.80;;;;;;;;;;10323183;28;20114;-57
2023/05/05 22:41:29;;;;;;;7.32;3.45;;;;;;;;;;10327213;28;20035;-57
2023/05/05 22:46:29;;;;;;;8.85;3.42;;;;;;;;;;10323391;28;20045;-58
2023/05/05 22:51:30;;;;;;;8.38;3.38;;;;;;;;;;10345503;28;20019;-59
2023/05/05 22:56:31;;;;;;;4.43;3.50;;;;;;;;;;10312358;28;20474;-64
2023/05/05 23:01:32;;;;;;;11.27;3.25;;;;;;;;;;10307522;28;20379;-63
2023/05/05 23:06:33;;;;;;;4.72;3.50;;;;;;;;;;10304756;28;20039;-63
2023/05/05 23:11:33;;;;;;;4.45;3.30;;;;;;;;;;10322360;28;20019;-58
2023/05/05 23:16:34;;;;;;;7.05;3.65;;;;;;;;;;10312827;28;20363;-58
2023/05/05 23:21:34;;;;;;;8.00;3.80;;;;;;;;;;10311781;28;20433;-59
2023/05/05 23:26:35;;;;;;;5.88;3.30;;;;;;;;;;10318683;28;20088;-63
2023/05/05 23:31:36;;;;;;;5.75;3.38;;;;;;;;;;10329624;28;20378;-60
2023/05/05 23:36:36;;;;;;;5.10;3.70;;;;;;;;;;10329076;28;20410;-57
2023/05/05 23:41:37;;;;;;;8.20;3.40;;;;;;;;;;10322155;28;20397;-58
2023/05/05 23:46:37;;;;;;;3.70;3.33;;;;;;;;;;10316386;28;20465;-57
2023/05/05 23:51:38;;;;;;;5.75;3.17;;;;;;;;;;10320331;28;20053;-57
2023/05/05 23:56:39;;;;;;;4.30;3.30;;;;;;;;;;10316444;28;20031;-58
